Time;durP1;ratioP1;P1;durP2;ratioP2;P2;SDS_P1;SDS_P2;PMS_P1;PMS_P2;Temp;Humidity;BMP_temperature;BMP_pressure;BME280_temperature;BME280_humidity;BME280_pressure;Samples;Min_cycle;Max_cycle;Signal;HPM_P1;HPM_P2
2020/12/14 00:01:26;;;;;;;16.52;5.25;;;;;;;20.73;39.68;98036.97;5091660;28;20016;-83
2020/12/14 00:03:52;;;;;;;23.42;5.30;;;;;;;20.61;39.98;98029.44;5091970;28;20016;-83
2020/12/14 00:06:17;;;;;;;20.10;4.30;;;;;;;20.15;41.07;98023.31;5091465;28;20026;-78
2020/12/14 00:08:43;;;;;;;16.42;4.38;;;;;;;20.56;40.07;98020.91;5092213;28;20103;-78
2020/12/14 00:11:09;;;;;;;20.13;4.40;;;;;;;20.50;40.14;98009.59;5092238;28;20020;-84
2020/12/14 00:13:35;;;;;;;20.70;5.88;;;;;;;20.36;40.50;98012.81;5091955;28;20044;-78
2020/12/14 00:16:00;;;;;;;14.95;4.38;;;;;;;20.30;40.66;98017.34;5089534;28;20020;-80
2020/12/14 00:18:26;;;;;;;11.35;3.72;;;;;;;20.39;40.52;98006.34;5092331;28;20092;-80
2020/12/14 00:20:51;;;;;;;18.20;3.63;;;;;;;20.18;40.58;98005.06;5092290;28;20497;-83
2020/12/14 00:23:17;;;;;;;11.00;3.65;;;;;;;20.29;40.24;98019.34;5092152;28;20390;-84
2020/12/14 00:25:42;;;;;;;7.40;2.40;;;;;;;20.19;40.30;98003.81;5092231;28;20043;-79
2020/12/14 00:28:08;;;;;;;9.02;2.28;;;;;;;20.17;40.21;98001.47;5090838;28;20027;-83
2020/12/14 00:30:33;;;;;;;13.20;3.03;;;;;;;20.49;39.40;98013.59;5092195;28;20394;-78
2020/12/14 00:32:59;;;;;;;10.57;2.63;;;;;;;20.44;39.35;98012.16;5091994;28;20035;-77
2020/12/14 00:35:25;;;;;;;8.73;1.60;;;;;;;20.26;39.65;98008.38;5090726;28;20024;-78
2020/12/14 00:37:50;;;;;;;6.03;1.20;;;;;;;20.50;39.16;98009.59;5092242;28;20024;-78
2020/12/14 00:40:16;;;;;;;7.20;1.83;;;;;;;20.56;38.99;98015.38;5091919;28;20052;-78
2020/12/14 00:42:43;;;;;;;5.32;1.23;;;;;;;20.29;39.30;98008.25;5092164;28;20039;-79
2020/12/14 00:45:09;;;;;;;8.15;1.85;;;;;;;20.05;40.04;98007.81;5092196;28;20032;-82
2020/12/14 00:47:34;;;;;;;5.70;1.73;;;;;;;20.07;40.15;98010.91;5092419;28;20358;-78
2020/12/14 00:50:00;;;;;;;5.97;1.48;;;;;;;20.41;39.45;98026.91;5092480;28;20039;-84
2020/12/14 00:52:26;;;;;;;3.95;1.00;;;;;;;20.59;39.17;98026.34;5092320;28;20024;-78
2020/12/14 00:54:54;;;;;;;3.63;1.20;;;;;;;20.48;39.63;98032.25;5092303;28;20028;-78
2020/12/14 00:57:20;;;;;;;3.75;1.00;;;;;;;20.06;40.58;98022.44;5091106;28;20119;-83
2020/12/14 00:59:45;;;;;;;6.32;1.52;;;;;;;20.16;40.32;98032.41;5094970;28;20569;-84
2020/12/14 01:02:11;;;;;;;3.55;1.00;;;;;;;20.14;40.53;98026.53;5096216;28;20032;-84
2020/12/14 01:04:37;;;;;;;6.32;1.45;;;;;;;19.98;40.71;98032.97;5096168;28;20036;-84
2020/12/14 01:07:02;;;;;;;5.18;1.25;;;;;;;19.99;40.94;98036.50;5096058;28;20110;-82
2020/12/14 01:09:28;;;;;;;2.40;1.27;;;;;;;20.15;40.36;98042.72;5096089;28;20067;-78
2020/12/14 01:11:53;;;;;;;8.10;1.55;;;;;;;19.90;41.00;98043.47;5095658;28;20043;-83
2020/12/14 01:14:19;;;;;;;3.63;1.23;;;;;;;20.00;40.84;98041.59;5095888;28;20039;-78
2020/12/14 01:16:47;;;;;;;4.68;1.48;;;;;;;20.07;40.93;98052.47;5095835;28;20085;-82
2020/12/14 01:19:14;;;;;;;6.88;1.67;;;;;;;20.04;41.02;98053.38;5095823;28;20032;-78
2020/12/14 01:21:39;;;;;;;7.82;1.67;;;;;;;20.13;40.80;98061.03;5095832;28;20024;-81
2020/12/14 01:24:05;;;;;;;5.53;1.65;;;;;;;19.87;41.71;98054.66;5095743;28;20085;-81
2020/12/14 01:26:31;;;;;;;5.70;2.08;;;;;;;19.99;41.46;98064.22;5095622;28;20028;-79
2020/12/14 01:28:57;;;;;;;7.78;2.03;;;;;;;19.97;41.28;98061.13;5095678;28;20028;-77
2020/12/14 01:31:23;;;;;;;6.80;1.77;;;;;;;20.02;41.38;98063.34;5095504;28;20036;-80
2020/12/14 01:33:50;;;;;;;6.90;2.08;;;;;;;19.84;41.92;98067.41;5095478;28;20390;-78
2020/12/14 01:36:16;;;;;;;5.53;1.60;;;;;;;19.85;41.85;98076.50;5095492;28;20589;-78
2020/12/14 01:38:41;;;;;;;5.07;1.77;;;;;;;20.06;41.48;98073.09;5095506;28;20107;-81
2020/12/14 01:41:07;;;;;;;3.63;1.10;;;;;;;19.84;41.92;98074.94;5095417;28;20382;-81
2020/12/14 01:43:33;;;;;;;5.25;1.38;;;;;;;20.03;41.52;98076.78;5094003;28;20084;-79
2020/12/14 01:45:58;;;;;;;6.60;1.63;;;;;;;19.91;41.70;98083.06;5095218;28;20039;-82
2020/12/14 01:48:25;;;;;;;6.78;1.63;;;;;;;19.90;41.75;98078.72;5095316;28;20028;-78
2020/12/14 01:50:51;;;;;;;5.55;1.63;;;;;;;19.90;41.77;98075.97;5095182;28;20028;-83
2020/12/14 01:53:18;;;;;;;5.65;1.40;;;;;;;19.83;41.86;98087.25;5095276;28;20038;-77
2020/12/14 01:55:47;;;;;;;6.43;1.20;;;;;;;19.94;41.40;98091.25;5095094;28;20535;-77
2020/12/14 01:58:13;;;;;;;4.63;1.42;;;;;;;19.80;41.81;98093.66;5095038;28;20060;-80
2020/12/14 02:00:39;;;;;;;5.60;2.20;;;;;;;19.91;41.47;98100.47;5094985;28;20048;-80
2020/12/14 02:03:04;;;;;;;4.90;1.23;;;;;;;19.82;41.86;98099.56;5094937;28;20385;-81
2020/12/14 02:05:30;;;;;;;4.53;1.60;;;;;;;19.76;41.96;98104.84;5094916;28;20066;-78
2020/12/14 02:07:56;;;;;;;4.45;1.60;;;;;;;19.63;42.08;98113.09;5094927;28;20385;-82
2020/12/14 02:10:21;;;;;;;9.32;2.33;;;;;;;19.54;42.50;98106.63;5094710;28;20107;-78
2020/12/14 02:12:48;;;;;;;8.10;1.63;;;;;;;19.49;42.66;98112.69;5094399;28;20075;-79
2020/12/14 02:15:13;;;;;;;5.30;1.58;;;;;;;19.56;42.23;98107.72;5094762;28;20027;-82
2020/12/14 02:17:39;;;;;;;7.55;1.40;;;;;;;19.81;41.87;98111.84;5094731;28;20381;-79
2020/12/14 02:20:06;;;;;;;6.35;1.20;;;;;;;19.88;41.59;98122.75;5094731;28;20020;-79
2020/12/14 02:22:31;;;;;;;9.38;1.98;;;;;;;19.91;41.64;98119.84;5094599;28;20024;-79
2020/12/14 02:24:59;;;;;;;4.13;1.20;;;;;;;19.78;41.79;98124.56;5094588;28;20028;-77
2020/12/14 02:27:27;;;;;;;7.05;1.88;;;;;;;19.82;41.87;98118.94;5093160;28;20393;-78
2020/12/14 02:29:53;;;;;;;7.53;1.20;;;;;;;19.87;41.62;98126.69;5094448;28;20052;-81
2020/12/14 02:32:21;;;;;;;4.80;1.27;;;;;;;19.90;41.48;98134.16;5094310;28;20067;-79
2020/12/14 02:34:48;;;;;;;6.97;1.63;;;;;;;19.92;41.47;98135.25;5094309;28;20081;-78
2020/12/14 02:37:16;;;;;;;5.95;1.75;;;;;;;19.73;41.82;98138.97;5094284;28;20027;-81
2020/12/14 02:39:42;;;;;;;7.03;1.60;;;;;;;19.86;41.42;98150.88;5094238;28;20020;-83
2020/12/14 02:42:15;;;;;;;4.47;1.85;;;;;;;19.82;41.67;98152.19;5094197;28;20073;-79
2020/12/14 02:44:42;;;;;;;7.85;1.63;;;;;;;19.83;41.72;98154.53;5092896;28;20047;-82
2020/12/14 02:47:08;;;;;;;6.95;1.80;;;;;;;19.78;41.70;98160.59;5094062;28;20028;-81
2020/12/14 02:49:35;;;;;;;6.80;1.48;;;;;;;19.88;41.53;98161.53;5094150;28;20055;-77
2020/12/14 02:52:01;;;;;;;9.25;2.17;;;;;;;19.82;41.42;98164.06;5093684;28;20032;-81
2020/12/14 02:54:27;;;;;;;7.10;1.67;;;;;;;20.03;40.95;98164.69;5094055;28;20482;-78
2020/12/14 02:56:52;;;;;;;7.13;1.70;;;;;;;19.85;41.14;98174.25;5093820;28;20039;-80
2020/12/14 02:59:22;;;;;;;5.95;1.45;;;;;;;19.96;41.06;98185.06;5093881;28;20035;-79
2020/12/14 03:01:49;;;;;;;6.38;1.83;;;;;;;20.11;40.58;98179.91;5093931;28;20028;-79
2020/12/14 03:04:16;;;;;;;9.35;1.77;;;;;;;19.94;40.68;98187.47;5093747;28;20107;-79
2020/12/14 03:06:44;;;;;;;9.98;2.40;;;;;;;19.99;40.67;98186.16;5093802;28;20273;-82
2020/12/14 03:09:10;;;;;;;7.82;1.88;;;;;;;19.94;40.81;98185.47;5092383;28;20020;-78
2020/12/14 03:11:36;;;;;;;9.20;1.92;;;;;;;19.76;41.23;98199.03;5093343;28;20031;-79
2020/12/14 03:14:05;;;;;;;9.30;2.47;;;;;;;19.74;40.87;98195.16;5093659;28;20058;-81
2020/12/14 03:16:31;;;;;;;4.85;1.95;;;;;;;19.85;40.84;98203.94;5093002;28;20020;-83
2020/12/14 03:18:56;;;;;;;10.77;3.20;;;;;;;19.81;40.69;98204.06;5093226;28;20031;-80
2020/12/14 03:21:22;;;;;;;9.45;2.17;;;;;;;19.99;40.28;98197.25;5092952;28;20020;-79
2020/12/14 03:23:48;;;;;;;7.38;2.03;;;;;;;19.83;40.65;98206.41;5093385;28;20026;-78
2020/12/14 03:26:17;;;;;;;6.28;1.42;;;;;;;19.70;40.88;98202.78;5093360;28;20056;-77
2020/12/14 03:28:43;;;;;;;10.35;2.13;;;;;;;19.64;40.79;98199.75;5092083;28;20565;-77
2020/12/14 03:31:09;;;;;;;10.20;2.30;;;;;;;19.67;40.66;98207.19;5093393;28;20028;-83
2020/12/14 03:33:36;;;;;;;12.90;2.38;;;;;;;19.57;40.74;98202.69;5093218;28;20504;-78
2020/12/14 03:36:02;;;;;;;10.77;2.00;;;;;;;19.28;41.62;98206.16;5091998;28;20024;-82
2020/12/14 03:38:28;;;;;;;9.77;2.30;;;;;;;19.39;41.27;98211.44;5093255;28;20137;-77
2020/12/14 03:40:54;;;;;;;12.95;2.40;;;;;;;19.23;41.36;98205.91;5093347;28;20075;-85
2020/12/14 03:43:19;;;;;;;11.50;2.58;;;;;;;19.24;41.37;98208.22;5093099;28;20020;-78
2020/12/14 03:45:45;;;;;;;8.60;2.42;;;;;;;19.49;40.79;98209.59;5093102;28;20039;-79
2020/12/14 03:48:10;;;;;;;9.98;2.30;;;;;;;19.38;40.91;98213.41;5093101;28;20059;-81
2020/12/14 03:50:42;;;;;;;8.15;2.05;;;;;;;19.22;41.25;98216.19;5091753;28;20041;-83
2020/12/14 03:53:08;;;;;;;7.97;1.90;;;;;;;19.24;41.15;98219.31;5093012;28;20028;-84
2020/12/14 03:55:34;;;;;;;8.93;2.35;;;;;;;19.22;40.99;98223.72;5091834;28;20065;-83
2020/12/14 03:57:59;;;;;;;7.72;2.85;;;;;;;19.20;41.25;98215.06;5093024;28;20377;-84
2020/12/14 04:00:25;;;;;;;11.40;2.15;;;;;;;19.08;41.53;98211.75;5092973;28;20028;-81
2020/12/14 04:02:51;;;;;;;9.55;2.10;;;;;;;19.22;41.18;98226.50;5092987;28;20024;-80
2020/12/14 04:05:16;;;;;;;9.88;2.25;;;;;;;19.20;41.29;98221.38;5092928;28;20024;-81
2020/12/14 04:07:42;;;;;;;9.82;2.20;;;;;;;19.17;41.35;98225.00;5091537;28;20031;-84
2020/12/14 04:10:07;;;;;;;12.73;2.60;;;;;;;19.17;41.71;98227.78;5092829;28;20103;-78
2020/12/14 04:12:33;;;;;;;8.07;2.35;;;;;;;19.15;41.42;98223.88;5092569;28;20040;-77
2020/12/14 04:14:59;;;;;;;16.60;3.00;;;;;;;19.20;41.29;98228.91;5091450;28;20025;-78
2020/12/14 04:17:24;;;;;;;10.30;2.00;;;;;;;18.84;42.13;98235.25;5092771;28;20390;-82
2020/12/14 04:19:50;;;;;;;8.20;1.50;;;;;;;19.07;41.58;98232.34;5092734;28;20107;-78
2020/12/14 04:22:15;;;;;;;14.70;2.97;;;;;;;19.16;41.36;98228.22;5092705;28;20028;-83
2020/12/14 04:24:41;;;;;;;8.13;2.13;;;;;;;19.39;40.79;98239.13;5092767;28;20428;-82
2020/12/14 04:27:07;;;;;;;8.00;2.17;;;;;;;19.35;40.77;98241.22;5092615;28;20020;-79
2020/12/14 04:29:33;;;;;;;7.95;2.85;;;;;;;19.41;40.41;98251.31;5092578;28;20150;-78
2020/12/14 04:31:58;;;;;;;14.55;2.72;;;;;;;19.33;40.67;98247.16;5092475;28;20039;-79
2020/12/14 04:34:24;;;;;;;9.63;3.08;;;;;;;19.22;40.72;98249.41;5094658;28;20120;-78
2020/12/14 04:36:50;;;;;;;7.15;2.35;;;;;;;19.34;40.32;98245.94;5095391;28;20020;-78
2020/12/14 04:39:17;;;;;;;6.03;1.80;;;;;;;19.29;40.60;98251.25;5096701;28;20024;-84
2020/12/14 04:41:43;;;;;;;7.68;1.98;;;;;;;19.25;40.54;98251.31;5096525;28;20111;-81
2020/12/14 04:44:12;;;;;;;5.90;1.50;;;;;;;19.28;40.26;98253.22;5095320;28;20111;-82
2020/12/14 04:46:38;;;;;;;6.00;1.60;;;;;;;19.31;40.29;98257.91;5096542;28;20024;-78
2020/12/14 04:49:07;;;;;;;5.97;2.10;;;;;;;18.96;41.04;98261.47;5096338;28;20122;-77
2020/12/14 04:51:37;;;;;;;4.90;1.40;;;;;;;18.91;41.00;98265.53;5096340;28;20032;-81
2020/12/14 04:54:05;;;;;;;10.20;2.30;;;;;;;19.09;40.67;98260.38;5096467;28;20507;-84
2020/12/14 04:56:36;;;;;;;12.18;2.30;;;;;;;19.28;40.06;98263.53;5096274;28;20024;-81
2020/12/14 04:59:02;;;;;;;6.53;1.90;;;;;;;19.24;40.31;98266.38;5096265;28;20025;-78
2020/12/14 05:01:29;;;;;;;12.82;2.20;;;;;;;19.29;40.30;98270.63;5096231;28;20027;-84
2020/12/14 05:03:54;;;;;;;12.30;2.17;;;;;;;19.28;40.23;98260.75;5096106;28;20492;-78
2020/12/14 05:06:20;;;;;;;10.50;2.42;;;;;;;19.26;40.14;98261.16;5096169;28;20052;-84
2020/12/14 05:08:46;;;;;;;8.23;1.95;;;;;;;19.17;40.17;98269.28;5096123;28;20035;-84
2020/12/14 05:11:11;;;;;;;8.10;2.22;;;;;;;19.34;39.99;98272.84;5094638;28;20176;-77
2020/12/14 05:13:37;;;;;;;8.63;2.35;;;;;;;19.27;40.09;98276.59;5095628;28;20089;-78
2020/12/14 05:16:03;;;;;;;9.18;2.17;;;;;;;19.14;40.40;98278.47;5095946;28;20024;-80
2020/12/14 05:18:29;;;;;;;9.23;2.42;;;;;;;19.17;40.32;98285.91;5095978;28;20030;-82
2020/12/14 05:21:05;;;;;;;9.57;1.77;;;;;;;19.15;40.31;98279.25;5095767;28;20102;-82
2020/12/14 05:23:32;;;;;;;6.32;1.77;;;;;;;19.18;40.14;98286.69;5094476;28;20111;-80
2020/12/14 05:26:05;;;;;;;11.70;2.25;;;;;;;19.15;40.16;98285.56;5095764;28;20020;-78
2020/12/14 05:28:30;;;;;;;8.10;1.65;;;;;;;19.17;40.16;98282.34;5095693;28;20052;-81
2020/12/14 05:30:56;;;;;;;8.52;1.73;;;;;;;19.16;40.04;98292.66;5095648;28;20093;-83
2020/12/14 05:33:24;;;;;;;10.10;2.38;;;;;;;19.20;39.94;98295.34;5095510;28;20028;-83
2020/12/14 05:35:51;;;;;;;6.68;1.60;;;;;;;18.96;40.53;98300.19;5095482;28;20111;-84
2020/12/14 05:38:22;;;;;;;6.35;2.35;;;;;;;18.96;40.56;98302.97;5095264;28;20021;-80
2020/12/14 05:40:59;;;;;;;7.93;2.13;;;;;;;19.09;40.39;98301.88;5093836;28;20031;-84
2020/12/14 05:43:29;;;;;;;10.82;2.20;;;;;;;19.09;40.17;98298.34;5094660;28;20381;-78
2020/12/14 05:45:56;;;;;;;13.07;2.67;;;;;;;19.04;40.14;98302.41;5094979;28;20024;-78
2020/12/14 05:48:33;;;;;;;10.00;2.22;;;;;;;18.99;40.38;98308.44;5095180;28;20099;-81
2020/12/14 05:51:04;;;;;;;9.40;2.30;;;;;;;18.94;40.16;98306.16;5095356;28;20111;-80
2020/12/14 05:53:32;;;;;;;8.18;2.60;;;;;;;18.84;40.46;98307.19;5095131;28;20024;-83
2020/12/14 05:55:59;;;;;;;8.90;2.83;;;;;;;19.04;40.13;98302.41;5095189;28;20035;-84
2020/12/14 05:58:28;;;;;;;9.25;2.65;;;;;;;19.03;40.12;98305.59;5095151;28;20012;-83
2020/12/14 06:00:55;;;;;;;5.70;1.83;;;;;;;18.94;40.12;98306.16;5095008;28;20680;-78
2020/12/14 06:03:23;;;;;;;9.95;2.10;;;;;;;18.88;40.43;98307.88;5095050;28;20599;-78
2020/12/14 06:05:57;;;;;;;8.00;2.55;;;;;;;18.85;40.37;98308.75;5094943;28;20090;-78
2020/12/14 06:08:23;;;;;;;11.48;2.15;;;;;;;19.01;40.24;98316.31;5094983;28;20497;-82
2020/12/14 06:10:51;;;;;;;10.55;1.77;;;;;;;19.00;40.05;98312.75;5093520;28;20020;-84
2020/12/14 06:13:30;;;;;;;7.20;2.40;;;;;;;18.82;40.54;98318.69;5094349;28;20076;-78
2020/12/14 06:16:00;;;;;;;26.13;3.35;;;;;;;18.82;40.31;98312.38;5094832;28;20114;-82
2020/12/14 06:18:33;;;;;;;5.78;1.63;;;;;;;18.71;40.65;98322.88;5094690;28;20032;-84
2020/12/14 06:21:00;;;;;;;7.50;1.95;;;;;;;18.65;40.99;98317.00;5094708;28;20035;-79
2020/12/14 06:23:29;;;;;;;6.05;2.20;;;;;;;18.51;41.28;98320.06;5094855;28;20028;-83
2020/12/14 06:25:55;;;;;;;9.10;2.20;;;;;;;18.75;40.65;98324.38;5094557;28;20105;-78
2020/12/14 06:28:29;;;;;;;7.30;2.03;;;;;;;18.56;40.59;98323.09;5094563;28;20024;-78
2020/12/14 06:30:56;;;;;;;7.90;2.70;;;;;;;18.72;40.33;98333.50;5094552;28;20031;-79
2020/12/14 06:33:40;;;;;;;9.57;1.90;;;;;;;18.74;40.24;98325.56;5094471;28;20032;-83
2020/12/14 06:36:19;;;;;;;12.93;2.10;;;;;;;18.57;40.43;98343.25;5094380;28;20020;-81
2020/12/14 06:38:47;;;;;;;7.10;2.00;;;;;;;18.39;41.04;98349.13;5094357;28;20016;-77
2020/12/14 06:41:20;;;;;;;9.68;2.40;;;;;;;18.49;40.63;98350.13;5094212;28;20028;-83
2020/12/14 06:43:47;;;;;;;5.95;1.58;;;;;;;18.61;40.36;98346.75;5094402;28;20024;-78
2020/12/14 06:46:13;;;;;;;8.23;2.67;;;;;;;18.51;40.41;98356.00;5094170;28;20028;-79
2020/12/14 06:48:44;;;;;;;7.28;2.03;;;;;;;18.66;40.18;98351.78;5094121;28;20027;-78
2020/12/14 06:51:15;;;;;;;5.32;1.48;;;;;;;18.59;40.32;98354.69;5094048;28;20031;-84
2020/12/14 06:53:52;;;;;;;9.95;1.98;;;;;;;18.36;40.51;98365.75;5094015;28;20389;-84
2020/12/14 06:56:40;;;;;;;8.13;1.50;;;;;;;18.45;40.42;98368.78;5093189;28;20028;-84
2020/12/14 06:59:28;;;;;;;7.63;1.75;;;;;;;18.49;40.36;98369.47;5093885;28;20393;-78
2020/12/14 07:01:59;;;;;;;13.77;2.15;;;;;;;18.42;40.32;98372.38;5093806;28;20028;-78
2020/12/14 07:04:33;;;;;;;10.25;2.80;;;;;;;18.23;41.05;98373.91;5093760;28;20038;-78
2020/12/14 07:07:04;;;;;;;7.47;2.15;;;;;;;18.15;41.21;98378.78;5093969;28;20084;-78
2020/12/14 07:09:35;;;;;;;9.05;2.25;;;;;;;18.17;40.94;98373.59;5093720;28;20032;-77
2020/12/14 07:12:09;;;;;;;8.82;2.10;;;;;;;18.10;41.23;98384.78;5092956;28;20035;-85
2020/12/14 07:14:46;;;;;;;10.15;1.77;;;;;;;18.13;41.36;98386.69;5093342;28;20110;-78
2020/12/14 07:17:20;;;;;;;13.30;2.60;;;;;;;17.88;41.48;98380.78;5091899;28;20451;-78
2020/12/14 07:19:47;;;;;;;9.85;2.70;;;;;;;18.27;40.75;98391.19;5093448;28;20028;-79
2020/12/14 07:22:23;;;;;;;10.48;2.10;;;;;;;18.23;40.65;98385.72;5093490;28;20032;-78
2020/12/14 07:25:02;;;;;;;12.82;1.98;;;;;;;17.97;41.07;98372.75;5093376;28;20381;-78
2020/12/14 07:27:28;;;;;;;8.55;1.98;;;;;;;18.14;41.17;98393.78;5093468;28;20371;-78
2020/12/14 07:30:08;;;;;;;8.40;1.92;;;;;;;18.15;40.99;98411.94;5093357;28;20085;-79
2020/12/14 07:32:35;;;;;;;7.40;2.10;;;;;;;18.15;40.94;98411.94;5093210;28;20031;-78
2020/12/14 07:35:01;;;;;;;7.72;2.45;;;;;;;18.05;41.25;98407.34;5093363;28;20047;-84
2020/12/14 07:37:27;;;;;;;7.57;2.47;;;;;;;18.21;40.52;98415.78;5093145;28;20082;-78
2020/12/14 07:39:52;;;;;;;6.70;1.73;;;;;;;17.98;41.15;98410.22;5093110;28;20023;-79
2020/12/14 07:42:31;;;;;;;8.15;1.98;;;;;;;18.09;40.79;98430.19;5093203;28;20055;-83
2020/12/14 07:45:25;;;;;;;5.38;1.85;;;;;;;18.17;40.73;98426.09;5091922;28;20482;-79
2020/12/14 07:47:52;;;;;;;7.65;2.03;;;;;;;18.20;40.42;98430.78;5088682;28;20436;-78
2020/12/14 07:50:20;;;;;;;9.95;2.33;;;;;;;18.03;41.14;98438.16;5091142;28;20050;-79
2020/12/14 07:52:49;;;;;;;14.68;2.38;;;;;;;18.14;40.62;98442.75;5092433;28;20042;-79
2020/12/14 07:55:16;;;;;;;5.95;2.13;;;;;;;18.00;41.15;98449.28;5092596;28;20020;-79
2020/12/14 07:57:44;;;;;;;6.05;2.22;;;;;;;18.21;40.59;98446.19;5092504;28;20467;-78
2020/12/14 08:00:15;;;;;;;6.43;2.38;;;;;;;18.20;40.36;98457.66;5089645;28;20016;-78
2020/12/14 08:02:43;;;;;;;11.27;3.10;;;;;;;18.04;40.65;98452.75;5092534;28;20099;-79
2020/12/14 08:05:19;;;;;;;6.90;1.60;;;;;;;18.15;40.52;98463.66;5092444;28;20023;-79
2020/12/14 08:07:53;;;;;;;8.52;2.22;;;;;;;18.32;40.10;98457.06;5092415;28;20028;-79
2020/12/14 08:10:29;;;;;;;10.55;2.58;;;;;;;18.35;39.91;98469.25;5092710;28;20039;-79
2020/12/14 08:12:56;;;;;;;11.90;2.40;;;;;;;18.42;39.90;98469.13;5092516;28;20048;-78
2020/12/14 08:15:22;;;;;;;9.73;1.92;;;;;;;18.40;40.02;98471.53;5092660;28;20024;-79
2020/12/14 08:17:49;;;;;;;9.20;2.45;;;;;;;17.97;40.76;98480.50;5092615;28;20028;-78
2020/12/14 08:20:29;;;;;;;12.23;1.85;;;;;;;17.77;41.45;98474.09;5092585;28;20486;-78
2020/12/14 08:22:56;;;;;;;;;;;;;;;17.84;41.20;98490.56;5093149;28;20474;-78
2020/12/14 08:25:24;;;;;;;11.07;2.88;;;;;;;18.06;40.59;98485.50;5092679;28;19912;-79
2020/12/14 08:27:52;;;;;;;11.98;2.33;;;;;;;18.07;40.66;98487.09;5091560;28;20107;-79
2020/12/14 08:30:19;;;;;;;11.85;2.42;;;;;;;17.93;40.92;98488.06;5092169;28;20028;-79
2020/12/14 08:33:02;;;;;;;9.68;2.53;;;;;;;18.01;41.01;98495.06;5090514;28;20420;-79
2020/12/14 08:35:27;;;;;;;9.68;2.30;;;;;;;17.74;41.75;98509.63;5091207;28;20052;-79
2020/12/14 08:38:01;;;;;;;10.38;2.95;;;;;;;18.08;40.78;98499.69;5090917;28;20040;-79
2020/12/14 08:40:26;;;;;;;10.65;2.53;;;;;;;18.12;40.71;98505.94;5091455;28;20372;-79
2020/12/14 08:42:52;;;;;;;11.40;2.20;;;;;;;18.13;41.09;98501.97;5092345;28;20027;-82
2020/12/14 08:45:18;;;;;;;10.52;2.50;;;;;;;18.06;41.02;98508.41;5092390;28;20378;-79
2020/12/14 08:47:44;;;;;;;8.93;2.63;;;;;;;18.01;41.08;98520.69;5092422;28;20042;-79
2020/12/14 08:50:12;;;;;;;9.85;2.53;;;;;;;17.98;41.36;98517.97;5091202;28;20051;-83
2020/12/14 08:52:38;;;;;;;10.88;3.30;;;;;;;18.21;40.88;98520.00;5091148;28;20071;-80
2020/12/14 08:55:07;;;;;;;9.80;2.22;;;;;;;18.15;41.03;98533.53;5091407;28;20103;-79
2020/12/14 08:57:33;;;;;;;11.55;2.10;;;;;;;18.32;40.38;98528.94;5088834;28;20032;-79
2020/12/14 09:00:12;;;;;;;9.15;2.30;;;;;;;18.17;40.20;98530.34;5091083;28;20028;-79
2020/12/14 09:02:38;;;;;;;12.82;1.80;;;;;;;18.33;40.33;98533.25;5091318;28;20066;-81
2020/12/14 09:05:20;;;;;;;10.63;2.65;;;;;;;18.43;40.06;98534.28;5091202;28;20021;-79
2020/12/14 09:07:46;;;;;;;10.25;2.58;;;;;;;18.48;40.20;98547.66;5089571;28;20440;-79
2020/12/14 09:10:22;;;;;;;5.57;1.60;;;;;;;18.21;40.60;98551.22;5091544;28;20417;-78
2020/12/14 09:12:49;;;;;;;10.43;2.42;;;;;;;17.87;41.38;98550.50;5089242;28;20040;-78
2020/12/14 09:15:15;;;;;;;16.27;2.83;;;;;;;18.02;40.92;98558.19;5091008;28;20154;-79
2020/12/14 09:17:42;;;;;;;5.82;1.42;;;;;;;17.86;41.54;98549.72;5088526;28;20525;-78
2020/12/14 09:20:09;;;;;;;6.13;2.70;;;;;;;17.96;41.13;98559.06;5092584;28;20016;-79
2020/12/14 09:22:35;;;;;;;7.53;2.08;;;;;;;18.01;41.01;98556.63;5094908;28;20097;-78
2020/12/14 09:25:01;;;;;;;6.90;1.95;;;;;;;18.02;40.99;98571.22;5091958;28;20019;-79
2020/12/14 09:27:26;;;;;;;8.02;1.63;;;;;;;18.14;40.66;98580.94;5094975;28;20035;-80
2020/12/14 09:29:52;;;;;;;6.15;1.88;;;;;;;17.92;41.20;98578.47;5094734;28;20077;-79
2020/12/14 09:32:18;;;;;;;7.63;2.08;;;;;;;18.10;40.87;98580.97;5093226;28;20016;-77
2020/12/14 09:34:43;;;;;;;7.35;2.38;;;;;;;18.07;40.79;98587.34;5094793;28;20027;-78
2020/12/14 09:37:11;;;;;;;9.30;2.22;;;;;;;18.08;40.92;98588.91;5094747;28;20020;-86
2020/12/14 09:39:39;;;;;;;8.82;1.88;;;;;;;18.10;40.83;98603.09;5094437;28;20021;-80
2020/12/14 09:42:05;;;;;;;9.98;3.05;;;;;;;17.95;41.08;98604.47;5093198;28;20031;-79
2020/12/14 09:44:31;;;;;;;10.07;2.40;;;;;;;18.08;40.98;98604.72;5094340;28;20393;-84
2020/12/14 09:47:02;;;;;;;6.65;1.30;;;;;;;17.96;41.28;98608.78;5094220;28;20020;-79
2020/12/14 09:49:28;;;;;;;9.07;2.63;;;;;;;18.25;40.47;98609.19;5094267;28;20157;-80
2020/12/14 09:51:53;;;;;;;10.98;1.65;;;;;;;18.17;40.68;98613.25;5094142;28;20481;-80
2020/12/14 09:54:20;;;;;;;4.65;1.48;;;;;;;18.08;40.82;98621.28;5094095;28;20093;-82
2020/12/14 09:56:45;;;;;;;6.00;1.23;;;;;;;18.13;40.57;98618.03;5092867;28;20490;-81
2020/12/14 09:59:11;;;;;;;5.78;2.10;;;;;;;18.06;40.86;98631.94;5093617;28;20035;-80
2020/12/14 10:01:37;;;;;;;10.02;2.15;;;;;;;18.23;40.50;98639.25;5093703;28;20020;-80
2020/12/14 10:04:02;;;;;;;9.15;1.63;;;;;;;18.39;40.22;98635.88;5093918;28;20032;-80
2020/12/14 10:06:29;;;;;;;4.22;1.15;;;;;;;18.49;39.89;98640.47;5094169;28;20028;-80
2020/12/14 10:08:55;;;;;;;6.10;1.40;;;;;;;18.54;39.81;98634.47;5093491;28;20045;-80
2020/12/14 10:11:26;;;;;;;9.20;2.45;;;;;;;18.36;40.31;98643.00;5093808;28;20032;-79
2020/12/14 10:13:52;;;;;;;8.65;1.92;;;;;;;18.55;40.00;98633.28;5091185;28;20490;-79
2020/12/14 10:16:17;;;;;;;6.07;1.70;;;;;;;18.57;39.90;98644.69;5093587;28;20031;-81
2020/12/14 10:18:43;;;;;;;5.68;1.85;;;;;;;18.59;40.03;98647.84;5093413;28;20028;-79
2020/12/14 10:21:09;;;;;;;3.67;1.10;;;;;;;18.33;40.59;98654.91;5088045;28;20411;-79
2020/12/14 10:23:35;;;;;;;8.13;1.52;;;;;;;18.40;40.36;98652.03;5093467;28;20020;-79
2020/12/14 10:26:00;;;;;;;11.80;2.25;;;;;;;18.74;39.77;98667.78;5091844;28;20030;-80
2020/12/14 10:28:26;;;;;;;8.60;2.30;;;;;;;19.01;38.95;98662.25;5092079;28;20027;-79
2020/12/14 10:30:52;;;;;;;6.65;1.52;;;;;;;19.26;38.61;98673.69;5093384;28;20123;-80
2020/12/14 10:33:18;;;;;;;5.40;1.40;;;;;;;19.23;38.60;98673.75;5093223;28;20052;-82
2020/12/14 10:35:48;;;;;;;4.05;1.98;;;;;;;19.13;38.58;98684.59;5093260;28;20598;-79
2020/12/14 10:38:14;;;;;;;6.38;2.03;;;;;;;19.13;38.82;98694.88;5093193;28;20040;-79
2020/12/14 10:40:40;;;;;;;7.45;1.52;;;;;;;19.20;38.68;98691.22;5093014;28;20117;-82
2020/12/14 10:43:05;;;;;;;7.18;1.83;;;;;;;18.74;39.34;98696.25;5092373;28;20027;-79
2020/12/14 10:45:31;;;;;;;9.30;1.67;;;;;;;19.11;38.82;98698.03;5092480;28;20028;-80
2020/12/14 10:47:57;;;;;;;3.80;1.42;;;;;;;19.02;38.71;98697.78;5092842;28;20012;-80
2020/12/14 10:50:26;;;;;;;5.93;1.60;;;;;;;19.10;38.55;98698.47;5093195;28;20027;-80
2020/12/14 10:52:52;;;;;;;5.53;1.50;;;;;;;19.07;38.54;98711.16;5090636;28;20052;-82
2020/12/14 10:55:18;;;;;;;8.27;2.13;;;;;;;19.12;38.62;98698.84;5092999;28;20024;-80
2020/12/14 10:57:45;;;;;;;7.05;1.75;;;;;;;19.15;38.29;98709.06;5092890;28;20085;-79
2020/12/14 11:00:11;;;;;;;7.47;1.45;;;;;;;18.87;39.06;98710.28;5092880;28;20490;-79
2020/12/14 11:02:40;;;;;;;4.82;1.50;;;;;;;18.83;39.31;98707.56;5092784;28;20111;-78
2020/12/14 11:05:10;;;;;;;8.30;1.95;;;;;;;19.00;38.80;98707.72;5092806;28;20485;-79
2020/12/14 11:07:36;;;;;;;16.15;2.28;;;;;;;18.84;39.18;98711.13;5092820;28;20389;-78
2020/12/14 11:10:04;;;;;;;8.40;1.83;;;;;;;19.05;38.63;98705.28;5092406;28;20020;-79
2020/12/14 11:12:30;;;;;;;10.73;2.28;;;;;;;19.19;38.59;98709.00;5092281;28;20040;-78
2020/12/14 11:14:56;;;;;;;9.10;2.08;;;;;;;18.99;38.71;98717.25;5092596;28;20023;-78
2020/12/14 11:17:21;;;;;;;8.65;2.60;;;;;;;19.02;38.95;98716.38;5091269;28;20470;-79
2020/12/14 11:19:47;;;;;;;4.70;1.85;;;;;;;19.18;38.64;98716.53;5091302;28;20036;-80
2020/12/14 11:22:13;;;;;;;8.85;2.00;;;;;;;19.27;38.66;98708.50;5091978;28;20024;-83
2020/12/14 11:24:39;;;;;;;10.68;1.95;;;;;;;19.16;38.93;98721.72;5092217;28;20023;-79
2020/12/14 11:27:05;;;;;;;6.72;2.03;;;;;;;19.03;39.38;98718.72;5090899;28;20020;-79
2020/12/14 11:29:31;;;;;;;5.47;2.30;;;;;;;18.94;39.56;98724.00;5092214;28;20016;-79
2020/12/14 11:31:56;;;;;;;11.80;2.08;;;;;;;19.04;39.35;98719.50;5091731;28;20020;-79
2020/12/14 11:34:22;;;;;;;9.15;2.08;;;;;;;19.08;39.24;98717.50;5090810;28;20020;-81